createdAt,value
2022-11-19T00:02:01.892Z,5.43
2022-11-19T00:04:29.786Z,5.10
2022-11-19T00:06:57.657Z,5.63
2022-11-19T00:09:27.282Z,5.70
2022-11-19T00:12:12.487Z,6.33
2022-11-19T00:14:40.418Z,6.23
2022-11-19T00:17:08.342Z,5.90
2022-11-19T00:19:36.219Z,5.67
2022-11-19T00:22:04.069Z,5.50
2022-11-19T00:24:33.306Z,6.17
2022-11-19T00:27:01.176Z,5.47
2022-11-19T00:29:29.029Z,6.37
2022-11-19T00:31:56.848Z,7.23
2022-11-19T00:34:24.683Z,7.03
2022-11-19T00:36:52.541Z,7.03
2022-11-19T00:39:21.618Z,6.83
2022-11-19T00:41:51.412Z,7.70
2022-11-19T00:44:19.275Z,6.70
2022-11-19T00:46:47.236Z,7.30
2022-11-19T00:49:15.071Z,7.43
2022-11-19T00:51:43.071Z,9.43
2022-11-19T00:54:10.919Z,7.83
2022-11-19T00:56:38.790Z,9.60
2022-11-19T00:59:07.984Z,8.53
2022-11-19T01:01:35.872Z,9.33
2022-11-19T01:04:03.706Z,11.23
2022-11-19T01:06:31.567Z,9.57
2022-11-19T01:08:59.843Z,10.63
2022-11-19T01:11:29.551Z,10.40
2022-11-19T01:13:58.870Z,10.33
2022-11-19T01:16:30.271Z,9.37
2022-11-19T01:18:58.427Z,10.43
2022-11-19T01:21:28.784Z,11.13
2022-11-19T01:23:56.837Z,11.20
2022-11-19T01:26:25.486Z,10.73
2022-11-19T01:28:53.720Z,10.50
2022-11-19T01:31:23.237Z,13.23
2022-11-19T01:33:52.946Z,15.17
2022-11-19T01:36:22.894Z,13.00
2022-11-19T01:38:51.860Z,12.40
2022-11-19T01:41:20.056Z,13.30
2022-11-19T01:43:49.927Z,13.03
2022-11-19T01:46:19.253Z,13.03
2022-11-19T01:48:50.230Z,13.47
2022-11-19T01:51:21.731Z,14.33
2022-11-19T01:53:51.271Z,15.47
2022-11-19T01:56:21.833Z,15.07
2022-11-19T01:58:52.062Z,14.70
2022-11-19T02:01:20.647Z,15.57
2022-11-19T02:03:49.399Z,16.00
2022-11-19T02:06:18.879Z,15.07
2022-11-19T02:08:49.990Z,16.50
2022-11-19T02:11:52.663Z,16.87
2022-11-19T02:14:34.062Z,17.17
2022-11-19T02:17:07.522Z,16.47
2022-11-19T02:20:02.987Z,17.00
2022-11-19T02:22:48.848Z,17.07
2022-11-19T02:25:27.179Z,16.67
2022-11-19T02:28:12.087Z,15.20
2022-11-19T02:30:43.544Z,16.00
2022-11-19T02:33:15.832Z,16.17
2022-11-19T02:35:48.387Z,17.03
2022-11-19T02:38:23.399Z,16.77
2022-11-19T02:40:56.436Z,16.03
2022-11-19T02:43:27.600Z,16.57
2022-11-19T02:45:58.564Z,16.20
2022-11-19T02:48:29.511Z,16.37
2022-11-19T02:51:00.055Z,18.17
2022-11-19T02:53:27.911Z,18.00
2022-11-19T02:56:13.961Z,17.03
2022-11-19T02:59:01.816Z,17.53
2022-11-19T03:01:49.607Z,17.93
2022-11-19T03:04:31.952Z,17.67
2022-11-19T03:07:03.492Z,18.63
2022-11-19T03:09:32.578Z,17.40
2022-11-19T03:12:06.673Z,19.87
2022-11-19T03:14:56.138Z,20.33
2022-11-19T03:17:29.071Z,18.00
2022-11-19T03:19:59.439Z,17.77
2022-11-19T03:22:31.284Z,17.67
2022-11-19T03:25:02.095Z,18.10
2022-11-19T03:27:32.871Z,18.80
2022-11-19T03:30:03.372Z,19.03
2022-11-19T03:32:37.083Z,18.67
2022-11-19T03:35:09.175Z,19.90
2022-11-19T03:37:39.363Z,19.17
2022-11-19T03:40:10.610Z,17.50
2022-11-19T03:42:38.800Z,20.50
2022-11-19T03:45:11.570Z,20.00
2022-11-19T03:47:42.004Z,18.93
2022-11-19T03:50:15.913Z,20.10
2022-11-19T03:52:44.288Z,20.73
2022-11-19T03:55:12.482Z,19.60
2022-11-19T03:57:40.418Z,19.97
2022-11-19T04:00:09.641Z,20.90
2022-11-19T04:02:44.675Z,20.27
2022-11-19T04:05:12.579Z,19.00
2022-11-19T04:07:40.475Z,19.87
2022-11-19T04:10:09.094Z,20.80
2022-11-19T04:12:36.855Z,20.23
2022-11-19T04:15:05.292Z,20.27
2022-11-19T04:17:33.108Z,20.17
2022-11-19T04:20:02.355Z,21.40
2022-11-19T04:22:30.160Z,22.83
2022-11-19T04:24:58.034Z,19.90
2022-11-19T04:27:25.897Z,19.77
2022-11-19T04:29:53.739Z,20.37
2022-11-19T04:32:21.599Z,22.23
2022-11-19T04:34:49.578Z,19.30
2022-11-19T04:37:18.788Z,22.93
2022-11-19T04:39:46.653Z,21.67
2022-11-19T04:42:14.540Z,21.27
2022-11-19T04:44:42.467Z,23.53
2022-11-19T04:47:10.289Z,22.30
2022-11-19T04:49:38.124Z,23.97
2022-11-19T04:52:06.464Z,22.97
2022-11-19T04:54:35.724Z,25.23
2022-11-19T04:57:03.609Z,23.77
2022-11-19T04:59:31.443Z,24.20
2022-11-19T05:01:59.370Z,24.03
2022-11-19T05:04:27.475Z,23.60
2022-11-19T05:06:55.450Z,23.40
2022-11-19T05:09:23.381Z,25.13
2022-11-19T05:11:52.674Z,26.03
2022-11-19T05:14:20.479Z,23.73
2022-11-19T05:16:48.349Z,26.93
2022-11-19T05:19:16.323Z,25.30
2022-11-19T05:21:44.174Z,26.07
2022-11-19T05:24:12.192Z,27.17
2022-11-19T05:26:40.017Z,25.60
2022-11-19T05:29:09.277Z,24.67
2022-11-19T05:31:37.500Z,25.47
2022-11-19T05:34:05.383Z,26.77
2022-11-19T05:36:33.399Z,26.87
2022-11-19T05:39:01.208Z,28.87
2022-11-19T05:41:29.056Z,27.30
2022-11-19T05:43:57.657Z,28.20
2022-11-19T05:46:26.935Z,27.87
2022-11-19T05:48:55.327Z,26.60
2022-11-19T05:51:23.237Z,28.10
2022-11-19T05:53:51.108Z,28.70
2022-11-19T05:56:19.484Z,41.80
2022-11-19T05:58:47.333Z,25.50
2022-11-19T06:01:15.353Z,27.63
2022-11-19T06:03:44.516Z,27.63
2022-11-19T06:06:12.383Z,28.30
2022-11-19T06:08:40.230Z,24.37
2022-11-19T06:11:28.072Z,25.93
2022-11-19T06:13:55.953Z,25.27
2022-11-19T06:16:24.161Z,25.10
2022-11-19T06:18:53.489Z,23.27
2022-11-19T06:21:21.449Z,26.23
2022-11-19T06:23:49.350Z,27.10
2022-11-19T06:26:23.589Z,24.50
2022-11-19T06:28:51.516Z,25.63
2022-11-19T06:31:19.436Z,22.57
2022-11-19T06:33:47.344Z,23.83
2022-11-19T06:36:16.698Z,23.30
2022-11-19T06:38:44.530Z,22.53
2022-11-19T06:41:12.479Z,22.40
2022-11-19T06:43:40.257Z,24.77
2022-11-19T06:46:08.254Z,23.17
2022-11-19T06:48:36.241Z,22.43
2022-11-19T06:51:04.568Z,22.77
2022-11-19T06:53:34.086Z,20.90
2022-11-19T06:56:03.390Z,26.27
2022-11-19T06:58:31.883Z,22.47
2022-11-19T07:00:59.922Z,26.67
2022-11-19T07:03:27.716Z,25.20
2022-11-19T07:05:58.574Z,23.57
2022-11-19T07:08:26.523Z,23.30
2022-11-19T07:10:56.513Z,20.97
2022-11-19T07:13:24.393Z,20.87
2022-11-19T07:15:52.267Z,21.03
2022-11-19T07:18:20.067Z,23.27
2022-11-19T07:20:47.905Z,22.27
2022-11-19T07:23:15.825Z,21.00
2022-11-19T07:25:43.653Z,20.07
2022-11-19T07:28:12.923Z,20.13
2022-11-19T07:30:40.829Z,24.83
2022-11-19T07:33:08.765Z,27.10
2022-11-19T07:35:36.633Z,21.33
2022-11-19T07:38:04.484Z,21.63
2022-11-19T07:40:33.429Z,17.77
2022-11-19T07:43:00.264Z,20.37
2022-11-19T07:45:29.628Z,20.30
2022-11-19T07:47:57.484Z,21.70
2022-11-19T07:50:25.331Z,17.20
2022-11-19T07:52:53.152Z,19.90
2022-11-19T07:55:20.990Z,17.80
2022-11-19T07:57:48.883Z,17.67
2022-11-19T08:00:17.023Z,17.03
2022-11-19T08:02:46.347Z,15.40
2022-11-19T08:05:14.223Z,15.30
2022-11-19T08:07:42.571Z,16.40
2022-11-19T08:10:11.614Z,13.87
2022-11-19T08:12:39.471Z,13.87
2022-11-19T08:15:08.546Z,15.43
2022-11-19T08:17:53.758Z,12.77
2022-11-19T08:20:22.936Z,13.80
2022-11-19T08:22:50.787Z,12.73
2022-11-19T08:25:18.616Z,13.20
2022-11-19T08:27:46.488Z,12.57
2022-11-19T08:30:15.545Z,12.63
2022-11-19T08:32:43.430Z,11.83
2022-11-19T08:35:11.262Z,12.63
2022-11-19T08:37:40.444Z,11.07
2022-11-19T08:40:09.621Z,13.00
2022-11-19T08:42:54.774Z,13.97
2022-11-19T08:45:22.588Z,11.37
2022-11-19T08:47:50.448Z,12.50
2022-11-19T08:50:18.650Z,11.67
2022-11-19T08:52:47.892Z,12.23
2022-11-19T08:55:15.772Z,12.13
2022-11-19T08:57:43.622Z,11.43
2022-11-19T09:00:12.828Z,13.63
2022-11-19T09:02:40.694Z,12.60
2022-11-19T09:05:14.306Z,12.07
2022-11-19T09:07:42.627Z,11.43
2022-11-19T09:10:11.976Z,10.40
2022-11-19T09:12:39.900Z,9.93
2022-11-19T09:15:08.767Z,13.27
2022-11-19T09:17:36.838Z,11.67
2022-11-19T09:20:05.515Z,11.00
2022-11-19T09:22:33.446Z,10.53
2022-11-19T09:25:01.306Z,10.60
2022-11-19T09:27:30.652Z,12.27
2022-11-19T09:29:58.575Z,11.50
2022-11-19T09:32:26.464Z,11.97
2022-11-19T09:34:54.365Z,12.00
2022-11-19T09:37:22.250Z,10.87
2022-11-19T09:39:50.156Z,13.53
2022-11-19T09:42:22.807Z,10.93
2022-11-19T09:45:20.411Z,11.13
2022-11-19T09:48:05.856Z,11.07
2022-11-19T09:50:37.812Z,9.63
2022-11-19T09:53:09.207Z,10.27
2022-11-19T09:55:38.707Z,10.57
2022-11-19T09:58:11.328Z,12.37
2022-11-19T10:00:39.216Z,9.93
2022-11-19T10:03:15.093Z,11.63
2022-11-19T10:05:54.194Z,10.03
2022-11-19T10:08:32.774Z,16.43
2022-11-19T10:11:11.152Z,11.43
2022-11-19T10:13:47.904Z,13.97
2022-11-19T10:16:23.677Z,11.50
2022-11-19T10:18:59.721Z,10.73
2022-11-19T10:21:30.789Z,9.10
2022-11-19T10:24:05.647Z,10.10
2022-11-19T10:26:35.874Z,9.67
2022-11-19T10:29:05.518Z,10.77
2022-11-19T10:31:36.193Z,8.67
2022-11-19T10:34:10.375Z,10.20
2022-11-19T10:36:41.235Z,8.17
2022-11-19T10:39:15.643Z,7.57
2022-11-19T10:41:46.631Z,10.63
2022-11-19T10:44:41.337Z,7.07
2022-11-19T10:47:17.728Z,8.43
2022-11-19T10:49:47.307Z,8.73
2022-11-19T10:52:27.420Z,8.53
2022-11-19T10:54:58.291Z,7.97
2022-11-19T10:57:27.140Z,9.33
2022-11-19T10:59:55.640Z,8.90
2022-11-19T11:02:28.408Z,7.93
2022-11-19T11:05:05.237Z,8.20
2022-11-19T11:07:53.385Z,10.17
2022-11-19T11:10:30.131Z,9.33
2022-11-19T11:13:17.531Z,9.73
2022-11-19T11:15:46.360Z,8.33
2022-11-19T11:18:15.673Z,9.00
2022-11-19T11:20:49.030Z,8.20
2022-11-19T11:23:19.129Z,9.20
2022-11-19T11:25:55.445Z,7.87
2022-11-19T11:28:25.324Z,10.17
2022-11-19T11:30:54.827Z,10.77
2022-11-19T11:33:35.061Z,8.57
2022-11-19T11:36:07.104Z,8.30
2022-11-19T11:38:41.438Z,8.90
2022-11-19T11:42:01.880Z,9.50
2022-11-19T11:44:02.643Z,9.97
2022-11-19T11:46:39.295Z,8.00
2022-11-19T11:49:12.551Z,8.67
2022-11-19T11:51:42.081Z,9.73
2022-11-19T11:54:18.512Z,9.13
2022-11-19T11:56:46.999Z,9.63
2022-11-19T11:59:25.388Z,9.93
2022-11-19T12:01:57.564Z,9.57
2022-11-19T12:04:25.966Z,8.47
2022-11-19T12:07:05.419Z,8.17
2022-11-19T12:09:40.179Z,9.30
2022-11-19T12:12:12.039Z,7.47
2022-11-19T12:14:44.220Z,8.40
2022-11-19T12:17:20.160Z,9.67
2022-11-19T12:20:04.708Z,8.60
2022-11-19T12:22:43.720Z,8.60
2022-11-19T12:25:31.556Z,7.67
2022-11-19T12:28:12.053Z,7.67
2022-11-19T12:30:46.604Z,7.40
2022-11-19T12:33:29.836Z,8.60
2022-11-19T12:36:07.866Z,8.70
2022-11-19T12:38:45.358Z,8.10
2022-11-19T12:41:45.762Z,9.10
2022-11-19T12:44:21.633Z,9.00
2022-11-19T12:46:53.727Z,9.37
2022-11-19T12:49:33.943Z,8.50
2022-11-19T12:52:07.989Z,7.33
2022-11-19T12:54:48.774Z,9.70
2022-11-19T12:57:31.930Z,9.70
2022-11-19T13:00:15.738Z,9.83
2022-11-19T13:02:56.745Z,10.10
2022-11-19T13:05:29.776Z,8.37
2022-11-19T13:08:02.631Z,23.10
2022-11-19T13:10:35.135Z,10.13
2022-11-19T13:13:04.059Z,9.70
2022-11-19T13:15:35.913Z,10.20
2022-11-19T13:18:06.212Z,7.90
2022-11-19T13:20:40.027Z,8.30
2022-11-19T13:23:08.427Z,8.77
2022-11-19T13:25:40.169Z,8.40
2022-11-19T13:28:14.603Z,7.70
2022-11-19T13:30:43.909Z,8.13
2022-11-19T13:33:16.353Z,8.20
2022-11-19T13:35:48.501Z,9.17
2022-11-19T13:38:20.968Z,8.10
2022-11-19T13:40:53.374Z,9.13
2022-11-19T13:43:40.083Z,8.77
2022-11-19T13:46:20.436Z,9.63
2022-11-19T13:48:54.611Z,10.40
2022-11-19T13:51:27.440Z,8.50
2022-11-19T13:54:02.341Z,8.13
2022-11-19T13:56:44.291Z,8.37
2022-11-19T13:59:33.000Z,8.80
2022-11-19T14:02:28.485Z,8.57
2022-11-19T14:05:11.302Z,7.40
2022-11-19T14:07:50.758Z,8.77
2022-11-19T14:10:23.449Z,9.40
2022-11-19T14:13:26.691Z,9.97
2022-11-19T14:16:19.962Z,8.23
2022-11-19T14:19:08.064Z,7.93
2022-11-19T14:22:04.269Z,8.40
2022-11-19T14:25:14.794Z,10.13
2022-11-19T14:27:43.000Z,8.63
2022-11-19T14:30:14.715Z,8.10
2022-11-19T14:32:47.184Z,7.57
2022-11-19T14:35:34.274Z,8.13
2022-11-19T14:38:34.272Z,7.90
2022-11-19T14:41:22.604Z,7.57
2022-11-19T14:44:09.847Z,7.20
2022-11-19T14:46:41.374Z,9.00
2022-11-19T14:49:24.029Z,9.20
2022-11-19T14:51:54.467Z,8.13
2022-11-19T14:54:32.771Z,13.97
2022-11-19T14:57:18.472Z,8.53
2022-11-19T14:59:49.571Z,7.93
2022-11-19T15:02:24.555Z,9.07
2022-11-19T15:04:56.732Z,9.87
2022-11-19T15:07:41.972Z,7.80
2022-11-19T15:10:29.648Z,9.23
2022-11-19T15:13:19.134Z,8.07
2022-11-19T15:15:49.178Z,9.00
2022-11-19T15:18:46.370Z,8.03
2022-11-19T15:21:27.911Z,8.80
2022-11-19T15:24:04.589Z,8.37
2022-11-19T15:26:37.864Z,9.27
2022-11-19T15:29:11.483Z,10.30
2022-11-19T15:31:52.438Z,9.53
2022-11-19T15:35:03.874Z,10.67
2022-11-19T15:37:34.595Z,8.90
2022-11-19T15:40:02.807Z,9.27
2022-11-19T15:42:33.332Z,8.47
2022-11-19T15:45:04.862Z,9.83
2022-11-19T15:47:35.899Z,10.63
2022-11-19T15:50:05.679Z,8.57
2022-11-19T15:52:33.920Z,9.23
2022-11-19T15:55:12.180Z,8.10
2022-11-19T15:57:42.963Z,9.07
2022-11-19T16:00:17.286Z,9.83
2022-11-19T16:02:47.460Z,11.87
2022-11-19T16:05:22.740Z,12.53
2022-11-19T16:07:51.173Z,11.10
2022-11-19T16:10:24.904Z,11.60
2022-11-19T16:13:14.612Z,12.50
2022-11-19T16:16:03.337Z,11.17
2022-11-19T16:18:31.237Z,12.77
2022-11-19T16:21:00.685Z,12.60
2022-11-19T16:23:29.109Z,11.23
2022-11-19T16:26:02.698Z,11.60
2022-11-19T16:28:31.318Z,11.73
2022-11-19T16:31:01.602Z,11.20
2022-11-19T16:33:30.798Z,12.93
2022-11-19T16:36:15.009Z,11.07
2022-11-19T16:38:44.584Z,12.70
2022-11-19T16:41:30.986Z,12.27
2022-11-19T16:43:59.066Z,12.23
2022-11-19T16:46:29.651Z,13.67
2022-11-19T16:48:58.651Z,11.77
2022-11-19T16:51:36.545Z,14.13
2022-11-19T16:54:06.412Z,12.33
2022-11-19T16:56:41.123Z,12.17
2022-11-19T16:59:21.885Z,14.17
2022-11-19T17:01:55.117Z,13.33
2022-11-19T17:04:24.835Z,13.67
2022-11-19T17:06:54.167Z,13.63
2022-11-19T17:09:35.730Z,15.13
2022-11-19T17:12:19.105Z,14.57
2022-11-19T17:14:53.288Z,15.47
2022-11-19T17:17:40.752Z,14.40
2022-11-19T17:20:59.748Z,15.80
2022-11-19T17:23:30.251Z,15.97
2022-11-19T17:25:59.716Z,15.27
2022-11-19T17:28:35.017Z,13.27
2022-11-19T17:31:05.471Z,17.97
2022-11-19T17:33:36.559Z,16.13
2022-11-19T17:36:05.221Z,15.40
2022-11-19T17:38:34.511Z,14.60
2022-11-19T17:41:05.008Z,15.70
2022-11-19T17:44:06.230Z,18.47
2022-11-19T17:46:34.081Z,14.30
2022-11-19T17:49:01.923Z,16.43
2022-11-19T17:51:29.757Z,17.20
2022-11-19T17:53:59.024Z,14.70
2022-11-19T17:56:30.039Z,14.97
2022-11-19T17:58:59.624Z,16.90
2022-11-19T18:01:27.789Z,13.67
2022-11-19T18:03:55.821Z,14.33
2022-11-19T18:06:23.779Z,16.07
2022-11-19T18:08:51.660Z,14.43
2022-11-19T18:11:22.504Z,15.97
2022-11-19T18:13:53.067Z,12.60
2022-11-19T18:16:23.121Z,13.77
2022-11-19T18:18:51.399Z,16.93
2022-11-19T18:21:21.088Z,14.77
2022-11-19T18:23:50.305Z,13.87
2022-11-19T18:26:22.258Z,13.23
2022-11-19T18:28:50.183Z,14.60
2022-11-19T18:31:20.411Z,14.97
2022-11-19T18:33:49.205Z,13.03
2022-11-19T18:36:17.610Z,15.07
2022-11-19T18:38:45.817Z,16.50
2022-11-19T18:41:14.756Z,18.73
2022-11-19T18:44:01.360Z,16.40
2022-11-19T18:46:29.244Z,15.27
2022-11-19T18:48:57.071Z,14.87
2022-11-19T18:51:25.483Z,15.67
2022-11-19T18:53:53.295Z,17.00
2022-11-19T18:56:21.578Z,15.03
2022-11-19T18:58:50.841Z,15.27
2022-11-19T19:01:18.832Z,15.73
2022-11-19T19:03:47.068Z,15.23
2022-11-19T19:06:15.712Z,15.10
2022-11-19T19:08:43.566Z,17.13
2022-11-19T19:11:29.549Z,18.93
2022-11-19T19:13:58.886Z,24.00
2022-11-19T19:16:26.890Z,21.93
2022-11-19T19:18:55.462Z,22.43
2022-11-19T19:21:24.241Z,18.37
2022-11-19T19:23:52.171Z,17.87
2022-11-19T19:26:20.571Z,17.60
2022-11-19T19:28:50.557Z,17.47
2022-11-19T19:31:19.999Z,16.47
2022-11-19T19:33:48.216Z,17.70
2022-11-19T19:36:17.080Z,18.00
2022-11-19T19:38:45.357Z,17.60
2022-11-19T19:41:16.335Z,17.60
2022-11-19T19:43:44.544Z,17.70
2022-11-19T19:46:15.859Z,18.07
2022-11-19T19:48:46.123Z,17.73
2022-11-19T19:51:14.845Z,14.80
2022-11-19T19:53:42.787Z,16.73
2022-11-19T19:56:12.900Z,17.93
2022-11-19T19:58:41.708Z,15.03
2022-11-19T20:01:11.184Z,15.63
2022-11-19T20:03:39.251Z,16.90
2022-11-19T20:06:09.969Z,18.10
2022-11-19T20:08:38.238Z,22.33
2022-11-19T20:11:07.852Z,20.20
2022-11-19T20:13:36.792Z,18.90
2022-11-19T20:16:09.944Z,17.00
2022-11-19T20:18:42.028Z,17.63
2022-11-19T20:21:12.803Z,19.17
2022-11-19T20:23:41.406Z,18.60
2022-11-19T20:26:11.660Z,18.17
2022-11-19T20:28:39.579Z,18.23
2022-11-19T20:31:09.535Z,19.93
2022-11-19T20:33:38.295Z,18.67
2022-11-19T20:36:07.788Z,18.43
2022-11-19T20:38:38.229Z,21.23
2022-11-19T20:41:08.142Z,20.57
2022-11-19T20:43:53.707Z,21.20
2022-11-19T20:46:22.564Z,21.97
2022-11-19T20:48:50.865Z,21.77
2022-11-19T20:51:19.910Z,22.67
2022-11-19T20:53:49.322Z,23.00
2022-11-19T20:56:17.166Z,24.17
2022-11-19T20:58:45.131Z,25.43
2022-11-19T21:01:12.945Z,22.90
2022-11-19T21:03:40.836Z,21.20
2022-11-19T21:06:09.364Z,20.53
2022-11-19T21:08:37.663Z,23.20
2022-11-19T21:11:09.443Z,22.37
2022-11-19T21:13:37.479Z,21.50
2022-11-19T21:16:06.891Z,22.37
2022-11-19T21:18:37.051Z,20.57
2022-11-19T21:21:06.964Z,23.00
2022-11-19T21:23:35.384Z,22.10
2022-11-19T21:26:03.909Z,22.27
2022-11-19T21:28:33.740Z,21.87
2022-11-19T21:31:02.029Z,20.63
2022-11-19T21:33:29.999Z,20.23
2022-11-19T21:35:59.157Z,19.93
2022-11-19T21:38:27.262Z,22.43
2022-11-19T21:40:56.282Z,21.33
2022-11-19T21:43:25.797Z,25.63
2022-11-19T21:45:55.707Z,22.87
2022-11-19T21:48:24.010Z,23.47
2022-11-19T21:50:52.706Z,21.97
2022-11-19T21:53:20.809Z,24.37
2022-11-19T21:55:49.211Z,23.53
2022-11-19T21:58:17.709Z,23.80
2022-11-19T22:00:47.039Z,25.80
2022-11-19T22:03:16.497Z,39.03
2022-11-19T22:05:44.393Z,32.00
2022-11-19T22:08:12.330Z,32.30
2022-11-19T22:10:44.315Z,31.20
2022-11-19T22:13:13.480Z,29.93
2022-11-19T22:15:41.448Z,37.03
2022-11-19T22:18:09.312Z,43.50
2022-11-19T22:20:38.544Z,46.70
2022-11-19T22:23:06.325Z,50.53
2022-11-19T22:25:34.942Z,43.00
2022-11-19T22:28:03.301Z,39.17
2022-11-19T22:30:31.146Z,33.37
2022-11-19T22:32:59.009Z,33.03
2022-11-19T22:35:26.800Z,34.23
2022-11-19T22:37:55.991Z,36.17
2022-11-19T22:40:23.834Z,31.77
2022-11-19T22:42:51.710Z,33.43
2022-11-19T22:45:19.572Z,35.57
2022-11-19T22:47:47.453Z,34.03
2022-11-19T22:50:15.431Z,32.00
2022-11-19T22:52:43.263Z,28.83
2022-11-19T22:55:12.507Z,34.17
2022-11-19T22:57:40.338Z,31.37
2022-11-19T23:00:12.991Z,31.57
2022-11-19T23:02:40.775Z,30.60
2022-11-19T23:05:08.955Z,31.07
2022-11-19T23:07:36.876Z,31.27
2022-11-19T23:10:04.976Z,33.57
2022-11-19T23:12:51.612Z,28.90
2022-11-19T23:15:19.461Z,30.40
2022-11-19T23:17:47.263Z,30.53
2022-11-19T23:20:15.555Z,29.87
2022-11-19T23:22:43.411Z,25.87
2022-11-19T23:25:11.264Z,28.17
2022-11-19T23:27:40.442Z,28.83
2022-11-19T23:30:09.467Z,28.50
2022-11-19T23:32:37.291Z,31.17
2022-11-19T23:35:05.723Z,30.73
2022-11-19T23:37:33.552Z,29.10
2022-11-19T23:40:01.415Z,32.13
2022-11-19T23:42:29.217Z,32.27
2022-11-19T23:44:58.502Z,32.57
2022-11-19T23:47:26.363Z,31.97
2022-11-19T23:49:54.190Z,34.57
2022-11-19T23:52:22.007Z,36.67
2022-11-19T23:54:49.987Z,30.33
2022-11-19T23:57:17.878Z,33.67
2022-11-19T23:59:45.733Z,31.53
